Arbor Hill, Iowa
Current Conditions -  °F | °C
As of 11:55 AM on Tuesday 21 Oct 2014 (Local Time) from KPRO Reporting Station
Clear Clear  
Wind Chill: 62°   Ceiling: Unl
Heat Index: 62°   Visibility: 10mi
Dew Point: 45°   Wind: 5mph
Humidity: 54%   Direction: 120°ESE
Pressure: 30.15"   Gusts: NA
Location:  41.5397°N, 94.299°W
Report Text: KPRO 211655Z AUTO 12004KT 10SM CLR 17/07 A3015 RMK AO2 T01670074
Loading
Personal Weather Stations






























Interactive Weather Map
Tropical Storm Tracking
New forecast layout! Learn more

10-Day Weather Forecast

Advertisements
Track Severe Weather on mobile